Latest Weather Observations for Tennant Creek

IDD60801

Issued at 6:01 am CST Thursday 16 August 2018 (issued every 10 minutes, with the page automatically refreshed every 10 minutes)

About weather observations | Map of weather stations | Latest weather observations for NT | Other Formats
Station Details ID: 015135 Name: TENNANT CREEK AIRPORT Lat: -19.64 Lon: 134.18 Height: 375.7 m
Data from the previous 72 hours. | See also: Recent months at Tennant Creek
Date/Time
CST
Temp
°C
App
Temp
°C
Dew
Point
°C
Rel
Hum
%
Delta-T
°C
Wind Press
QNH
hPa
Press
MSL
hPa
Rain since
9am
mm
Dir  Spd
km/h
Gust
km/h
Spd
kts
Gust
kts
16/06:00am 12.5 7.8 -9.8 20 7.5 ENE 9 9 5 5 1016.8 1015.4 0.0
16/05:30am 12.5 7.8 -9.8 20 7.5 ENE 9 9 5 5 1016.7 1015.3 0.0
16/05:00am 14.1 9.5 -8.5 20 8.0 ENE 9 11 5 6 1016.6 1015.2 0.0
16/04:30am 12.9 8.2 -8.9 21 7.5 ENE 9 11 5 6 1016.5 1015.1 0.0
16/04:00am 12.5 7.8 -8.6 22 7.3 ENE 9 11 5 6 1016.7 1015.3 0.0
16/03:30am 11.0 6.3 -8.8 24 6.7 ENE 9 11 5 6 1016.8 1015.4 0.0
16/03:00am 11.1 6.5 -8.2 25 6.6 E 9 9 5 5 1016.9 1015.5 0.0
16/02:30am 11.9 7.3 -8.5 23 7.0 E 9 11 5 6 1017.0 1015.6 0.0
16/02:00am 11.8 7.1 -8.6 23 7.0 ENE 9 11 5 6 1017.2 1015.8 0.0
16/01:30am 13.1 8.8 -8.7 21 7.6 ENE 7 9 4 5 1017.4 1016.0 0.0
16/01:00am 13.9 8.6 -7.4 22 7.7 E 13 15 7 8 1017.4 1016.0 0.0
16/12:30am 12.6 8.4 -7.4 24 7.1 E 7 13 4 7 1017.5 1016.1 0.0
16/12:00am 13.3 9.1 -7.9 22 7.5 E 7 11 4 6 1017.5 1016.1 0.0
 
Date/Time
CST
Temp
°C
App
Temp
°C
Dew
Point
°C
Rel
Hum
%
Delta-T
°C
Wind Press
QNH
hPa
Press
MSL
hPa
Rain since
9am
mm
Dir  Spd
km/h
Gust
km/h
Spd
kts
Gust
kts
15/11:30pm 13.3 9.0 -9.2 20 7.8 ESE 7 9 4 5 1017.7 1016.2 0.0
15/11:00pm 14.0 9.7 -9.2 19 8.1 E 7 9 4 5 1017.8 1016.3 0.0
15/10:30pm 17.1 12.4 -8.9 16 9.5 ESE 9 11 5 6 1017.8 1016.3 0.0
15/10:00pm 16.2 11.1 -8.8 17 9.0 E 11 13 6 7 1017.8 1016.3 0.0
15/09:30pm 17.1 12.4 -9.7 15 9.6 E 9 11 5 6 1018.0 1016.6 0.0
15/09:00pm 18.6 13.9 -9.4 14 10.3 E 9 11 5 6 1017.9 1016.4 0.0
15/08:30pm 18.7 13.6 -9.3 14 10.3 E 11 13 6 7 1017.5 1016.1 0.0
15/08:00pm 18.1 13.0 -8.9 15 10.0 E 11 11 6 6 1017.1 1015.7 0.0
15/07:30pm 18.2 13.5 -9.7 14 10.1 ENE 9 9 5 5 1016.8 1015.4 0.0
15/07:00pm 19.1 14.3 -10.9 12 10.8 NE 9 11 5 6 1016.4 1015.0 0.0
15/06:30pm 22.8 17.9 -11.7 9 12.7 NE 9 11 5 6 1016.1 1014.7 0.0
15/06:00pm 25.2 20.0 -11.4 8 13.9 NE 11 17 6 9 1015.8 1014.4 0.0
15/05:30pm 26.1 20.5 -10.7 8 14.3 NE 13 19 7 10 1015.7 1014.3 0.0
15/05:00pm 26.8 20.5 -10.2 8 14.6 E 17 26 9 14 1015.8 1014.4 0.0
15/04:30pm 27.1 21.5 -11.6 7 14.9 ENE 13 24 7 13 1015.8 1014.4 0.0
15/04:00pm 27.4 22.3 -9.7 8 14.9 NE 11 19 6 10 1016.0 1014.6 0.0
15/03:30pm 26.8 21.3 -10.2 8 14.6 ESE 13 17 7 9 1016.4 1015.0 0.0
15/03:00pm 27.3 21.8 -9.8 8 14.8 ENE 13 22 7 12 1016.7 1015.3 0.0
15/02:30pm 26.6 21.4 -10.3 8 14.5 ESE 11 22 6 12 1017.2 1015.8 0.0
15/02:00pm 26.4 21.2 -10.5 8 14.4 NNE 11 24 6 13 1017.9 1016.4 0.0
15/01:30pm 26.6 20.7 -10.3 8 14.5 NNE 15 26 8 14 1018.2 1016.8 0.0
15/01:00pm 25.7 20.6 -9.5 9 13.9 ENE 11 17 6 9 1018.9 1017.5 0.0
15/12:30pm 25.0 19.5 -10.0 9 13.6 ESE 13 24 7 13 1019.8 1018.4 0.0
15/12:00pm 24.6 18.7 -10.3 9 13.4 ENE 15 22 8 12 1020.3 1019.0 0.0
15/11:30am 24.3 18.0 -10.6 9 13.3 ENE 17 26 9 14 1021.1 1019.7 0.0
15/11:00am 23.5 16.2 -11.2 9 13.0 ENE 22 30 12 16 1021.5 1020.1 0.0
15/10:30am 22.8 15.5 -10.4 10 12.5 ENE 22 28 12 15 1021.7 1020.3 0.0
15/10:00am 21.8 14.2 -9.9 11 12.0 ENE 24 28 13 15 1021.9 1020.5 0.0
15/09:30am 20.6 13.8 -8.7 13 11.1 E 20 26 11 14 1021.9 1020.5 0.0
15/09:00am 18.9 11.4 -9.1 14 10.3 E 24 32 13 17 1021.5 1020.1 0.0
15/08:30am 17.2 11.0 -8.8 16 9.5 E 17 24 9 13 1021.2 1019.8 0.0
15/08:00am 14.9 9.1 -8.5 19 8.4 E 15 19 8 10 1021.1 1019.7 0.0
15/07:30am 13.9 7.7 -9.3 19 8.0 E 17 22 9 12 1020.9 1019.5 0.0
15/07:00am 13.1 6.5 -9.3 20 7.7 ESE 19 22 10 12 1020.6 1019.2 0.0
15/06:30am 11.8 6.0 -9.2 22 7.1 ESE 15 17 8 9 1020.2 1018.8 0.0
15/06:00am 11.7 5.4 -9.9 21 7.2 ESE 17 19 9 10 1019.9 1018.5 0.0
15/05:30am 11.8 5.9 -10.4 20 7.3 ESE 15 17 8 9 1019.8 1018.4 0.0
15/05:00am 11.8 6.2 -10.4 20 7.3 ESE 13 17 7 9 1019.7 1018.3 0.0
15/04:30am 12.1 6.1 -10.8 19 7.5 ESE 15 17 8 9 1019.7 1018.3 0.0
15/04:00am 12.5 6.2 -10.5 19 7.6 ESE 17 20 9 11 1019.3 1017.9 0.0
15/03:30am 12.6 6.7 -10.4 19 7.7 ESE 15 17 8 9 1019.3 1017.9 0.0
15/03:00am 12.6 7.0 -10.4 19 7.7 ESE 13 15 7 8 1019.2 1017.8 0.0
15/02:30am 13.0 7.5 -10.1 19 7.8 ESE 13 15 7 8 1019.4 1018.0 0.0
15/02:00am 12.9 7.0 -10.1 19 7.8 ESE 15 17 8 9 1019.4 1018.0 0.0
15/01:30am 11.9 6.0 -10.3 20 7.3 ESE 15 17 8 9 1019.6 1018.2 0.0
15/01:00am 11.9 6.7 -10.3 20 7.4 ESE 11 15 6 8 1019.7 1018.3 0.0
15/12:30am 11.7 6.5 -10.5 20 7.3 ESE 11 15 6 8 1019.7 1018.3 0.0
15/12:00am 14.0 8.9 -9.9 18 8.2 ESE 11 13 6 7 1019.9 1018.5 0.0
 
Date/Time
CST
Temp
°C
App
Temp
°C
Dew
Point
°C
Rel
Hum
%
Delta-T
°C
Wind Press
QNH
hPa
Press
MSL
hPa
Rain since
9am
mm
Dir  Spd
km/h
Gust
km/h
Spd
kts
Gust
kts
14/11:30pm 13.5 8.3 -10.3 18 8.0 E 11 11 6 6 1020.1 1018.7 0.0
14/11:00pm 13.4 8.3 -9.7 19 7.9 E 11 13 6 7 1020.1 1018.7 0.0
14/10:30pm 13.7 8.6 -9.5 19 8.0 ESE 11 11 6 6 1020.3 1019.0 0.0
14/10:00pm 14.5 9.7 -10.2 17 8.5 ESE 9 11 5 6 1020.6 1019.2 0.0
14/09:30pm 15.3 10.1 -10.3 16 8.8 E 11 15 6 8 1020.5 1019.1 0.0
14/09:00pm 15.3 10.2 -9.6 17 8.7 E 11 11 6 6 1020.5 1019.1 0.0
14/08:30pm 14.9 9.8 -9.9 17 8.6 E 11 11 6 6 1020.2 1018.8 0.0
14/08:00pm 13.8 9.0 -10.8 17 8.3 ENE 9 9 5 5 1020.0 1018.6 0.0
14/07:30pm 16.6 11.8 -10.1 15 9.4 E 9 9 5 5 1019.6 1018.2 0.0
14/07:00pm 18.7 13.8 -11.2 12 10.6 E 9 11 5 6 1019.3 1017.9 0.0
14/06:30pm 20.8 15.1 -11.9 10 11.7 E 13 15 7 8 1019.2 1017.8 0.0
14/06:00pm 22.6 16.2 -11.8 9 12.6 E 17 24 9 13 1019.0 1017.6 0.0
14/05:30pm 23.5 17.1 -11.2 9 13.0 E 17 28 9 15 1018.9 1017.5 0.0
14/05:00pm 23.8 17.1 -10.9 9 13.1 E 19 26 10 14 1018.9 1017.5 0.0
14/04:30pm 24.0 17.3 -10.8 9 13.2 ENE 19 28 10 15 1018.9 1017.5 0.0
14/04:00pm 24.5 17.5 -11.9 8 13.6 E 20 32 11 17 1018.9 1017.5 0.0
14/03:30pm 24.1 17.2 -10.7 9 13.2 E 20 30 11 16 1019.1 1017.7 0.0
14/03:00pm 24.3 16.6 -10.6 9 13.3 E 24 33 13 18 1019.3 1017.9 0.0
14/02:30pm 24.2 15.7 -12.1 8 13.4 E 28 35 15 19 1019.8 1018.4 0.0
14/02:00pm 23.6 15.9 -11.1 9 13.0 E 24 33 13 18 1020.5 1019.1 0.0
14/01:30pm 23.3 15.6 -11.3 9 12.9 E 24 35 13 19 1021.1 1019.7 0.0
14/01:00pm 22.3 14.7 -9.5 11 12.1 E 24 33 13 18 1021.8 1020.4 0.0
14/12:30pm 21.6 13.7 -9.0 12 11.7 E 26 37 14 20 1022.4 1021.0 0.0
14/12:00pm 20.6 12.4 -7.8 14 11.0 E 28 35 15 19 1022.8 1021.5 0.0
14/11:30am 20.4 11.5 -7.1 15 10.7 E 32 39 17 21 1023.5 1022.1 0.0
14/11:00am 19.7 10.3 -6.8 16 10.4 E 35 46 19 25 1023.8 1022.4 0.0
14/10:30am 18.9 9.9 -6.7 17 9.9 E 33 43 18 23 1024.2 1022.8 0.0
14/10:00am 17.7 8.3 -6.2 19 9.3 E 35 46 19 25 1024.4 1023.0 0.0
14/09:30am 16.6 7.6 -5.8 21 8.6 E 33 50 18 27 1024.5 1023.1 0.0
14/09:00am 15.3 6.9 -5.7 23 8.0 E 30 39 16 21 1024.7 1023.3 0.0
14/08:30am 13.9 5.6 -5.3 26 7.3 E 30 39 16 21 1024.7 1023.3 0.0
14/08:00am 12.8 5.2 -5.7 27 6.9 E 26 37 14 20 1024.5 1023.1 0.0
14/07:30am 11.5 5.2 -5.9 29 6.3 E 19 30 10 16 1024.2 1022.8 0.0
14/07:00am 10.9 4.6 -6.0 30 6.1 E 19 30 10 16 1024.0 1022.6 0.0
14/06:30am 11.1 4.6 -6.2 29 6.2 E 20 30 11 16 1023.7 1022.3 0.0
14/06:00am 11.3 4.0 -6.1 29 6.3 ESE 24 32 13 17 1023.7 1022.3 0.0
14/05:30am 11.6 3.5 -6.3 28 6.4 ESE 28 37 15 20 1023.4 1022.0 0.0
14/05:00am 11.8 3.7 -6.6 27 6.6 ESE 28 37 15 20 1023.3 1021.9 0.0
14/04:30am 11.9 3.8 -6.5 27 6.6 ESE 28 35 15 19 1023.3 1021.9 0.0
14/04:00am 12.1 4.4 -6.8 26 6.8 ESE 26 35 14 19 1023.1 1021.8 0.0
14/03:30am 12.2 4.1 -6.7 26 6.8 ESE 28 37 15 20 1023.4 1022.0 0.0
14/03:00am 12.5 5.1 -7.0 25 7.0 ESE 24 33 13 18 1023.3 1021.9 0.0
14/02:30am 12.8 5.5 -6.7 25 7.1 ESE 24 33 13 18 1023.6 1022.2 0.0
14/02:00am 13.0 6.0 -7.1 24 7.3 ESE 22 32 12 17 1023.8 1022.4 0.0
14/01:30am 13.2 6.2 -6.9 24 7.3 ESE 22 32 12 17 1023.8 1022.4 0.0
14/01:00am 13.7 6.7 -7.0 23 7.6 ESE 22 30 12 16 1024.0 1022.6 0.0
14/12:30am 13.7 7.1 -7.0 23 7.5 ESE 20 30 11 16 1024.0 1022.6 0.0
14/12:00am 14.1 7.7 -7.3 22 7.8 ESE 19 24 10 13 1024.0 1022.6 0.0
 
Date/Time
CST
Temp
°C
App
Temp
°C
Dew
Point
°C
Rel
Hum
%
Delta-T
°C
Wind Press
QNH
hPa
Press
MSL
hPa
Rain since
9am
mm
Dir  Spd
km/h
Gust
km/h
Spd
kts
Gust
kts
13/11:30pm 13.9 7.3 -7.4 22 7.7 ESE 20 26 11 14 1024.1 1022.7 0.0
13/11:00pm 14.1 7.0 -7.9 21 7.9 ESE 22 32 12 17 1024.1 1022.7 0.0
13/10:30pm 13.9 7.3 -8.7 20 7.9 ESE 19 24 10 13 1024.1 1022.7 0.0
13/10:00pm 14.5 8.3 -8.8 19 8.3 ESE 17 19 9 10 1024.1 1022.7 0.0
13/09:30pm 15.0 9.2 -9.1 18 8.5 ESE 15 19 8 10 1024.0 1022.6 0.0
13/09:00pm 15.8 9.6 -9.2 17 8.9 ESE 17 20 9 11 1023.8 1022.4 0.0
13/08:30pm 16.2 10.4 -8.8 17 9.0 ESE 15 22 8 12 1023.8 1022.4 0.0
13/08:00pm 16.6 11.2 -8.5 17 9.2 ESE 13 17 7 9 1023.6 1022.2 0.0
13/07:30pm 17.1 11.7 -8.9 16 9.4 ESE 13 15 7 8 1023.0 1021.7 0.0
13/07:00pm 18.3 12.9 -8.7 15 10.0 ESE 13 19 7 10 1022.6 1021.3 0.0
13/06:30pm 19.5 13.3 -8.7 14 10.6 ESE 17 24 9 13 1022.2 1020.8 0.0
13/06:00pm 20.5 13.7 -8.8 13 11.1 ESE 20 32 11 17 1022.0 1020.6 0.0
13/05:30pm 21.4 14.8 -9.1 12 11.6 ESE 19 30 10 16 1021.8 1020.4 0.0
13/05:00pm 21.6 14.4 -10.1 11 11.9 ESE 22 32 12 17 1021.6 1020.2 0.0
13/04:30pm 21.9 14.0 -8.7 12 11.8 ESE 26 35 14 19 1021.5 1020.1 0.0
13/04:00pm 22.0 13.7 -8.7 12 11.9 ESE 28 41 15 22 1021.6 1020.2 0.0
13/03:30pm 21.8 13.6 -7.8 13 11.6 ESE 28 39 15 21 1021.8 1020.4 0.0
13/03:08pm 21.3 12.7 -8.2 13 11.4 E 30 48 16 26 1022.0 1020.6 0.0
13/03:00pm 22.0 13.1 -6.7 14 11.5 E 32 48 17 26 1022.1 1020.7 0.0
13/02:54pm 21.9 13.7 -7.7 13 11.7 E 28 48 15 26 1022.2 1020.8 0.0
13/02:30pm 21.2 12.3 -7.3 14 11.2 E 32 44 17 24 1022.4 1021.0 0.0
13/02:00pm 20.7 12.2 -6.8 15 10.9 E 30 43 16 23 1022.8 1021.5 0.0
13/01:41pm 21.1 12.3 -5.7 16 10.9 E 32 50 17 27 1023.3 1021.9 0.0
13/01:30pm 20.0 11.2 -6.5 16 10.4 ESE 32 43 17 23 1023.5 1022.1 0.0
13/01:00pm 19.4 11.1 -4.8 19 9.8 ESE 30 48 16 26 1024.0 1022.6 0.0
13/12:58pm 20.3 12.0 -4.8 18 10.3 E 30 48 16 26 1024.0 1022.6 0.0
13/12:30pm 19.1 10.3 -4.4 20 9.6 ESE 33 44 18 24 1024.4 1023.0 0.0
13/12:00pm 18.9 10.1 -3.9 21 9.4 E 33 48 18 26 1025.0 1023.7 0.0
13/11:30am 17.7 9.0 -3.1 24 8.6 ESE 33 48 18 26 1025.6 1024.3 0.0
13/11:00am 16.5 7.1 -3.0 26 8.0 ESE 37 50 20 27 1026.1 1024.7 0.0
13/10:30am 15.7 6.4 -1.8 30 7.3 ESE 37 54 20 29 1026.4 1025.0 0.0
13/10:08am 15.4 5.7 -2.1 30 7.2 E 39 57 21 31 1026.4 1025.0 0.0
13/10:00am 14.7 4.2 -2.2 31 6.9 E 43 56 23 30 1026.5 1025.1 0.0
13/09:30am 14.2 3.2 -1.8 33 6.5 ESE 46 57 25 31 1026.4 1025.0 0.0
13/09:02am 13.5 3.8 -2.0 34 6.3 ESE 39 59 21 32 1026.3 1024.9 0.0
13/09:00am 13.4 4.2 -1.7 35 6.1 ESE 37 54 20 29 1026.3 1024.9 0.0
13/08:39am 12.8 3.9 -1.9 36 6.0 ESE 35 56 19 30 1025.9 1024.6 0.0
13/08:30am 12.6 4.1 -2.1 36 5.9 ESE 33 44 18 24 1025.9 1024.6 0.0
13/08:00am 11.2 3.6 -2.2 39 5.3 ESE 28 39 15 21 1025.6 1024.3 0.0
13/07:30am 10.1 3.2 -2.5 41 4.9 ESE 24 33 13 18 1025.4 1024.1 0.0
13/07:00am 9.5 2.6 -2.8 42 4.7 ESE 24 30 13 16 1025.0 1023.7 0.0
13/06:30am 9.6 3.1 -2.7 42 4.7 ESE 22 32 12 17 1024.6 1023.2 0.0

Other Formats:

Comma delimited format used in spreadsheet applications
http://www.bom.gov.au/fwo/IDD60801/IDD60801.94238.axf

JavaScript Object Notation format (JSON) in row-major order
http://www.bom.gov.au/fwo/IDD60801/IDD60801.94238.json